Preview of NWS' New Version of Forecast
This preview is not operational and should not be used for support decisions.

Terminal Aerodrome Forecast (TAF)

Issued by National Weather Service (NWS)

                            
000
FTAK31 PAFC 242325
TAFADL
TAF
PADL 242325Z 2500/2524 VRB05KT P6SM SCT060
     FM250900 VRB03KT P6SM BCFG FEW002
     FM251200 VRB02KT 1SM BR BKN004
     FM251800 08005KT P6SM SCT100=